createdAt,value
2022-10-24T00:01:44.731Z,12.80
2022-10-24T00:06:49.448Z,12.90
2022-10-24T00:11:52.855Z,12.80
2022-10-24T00:16:56.186Z,12.80
2022-10-24T00:22:00.905Z,12.90
2022-10-24T00:27:04.651Z,13.10
2022-10-24T00:32:08.109Z,13.00
2022-10-24T00:37:13.434Z,13.20
2022-10-24T00:42:16.782Z,13.20
2022-10-24T00:47:23.108Z,13.30
2022-10-24T00:52:31.127Z,13.00
2022-10-24T00:57:39.057Z,16.20
2022-10-24T01:02:43.114Z,13.00
2022-10-24T01:07:54.058Z,13.00
2022-10-24T01:13:10.631Z,13.00
2022-10-24T01:18:20.865Z,13.10
2022-10-24T01:24:06.986Z,13.10
2022-10-24T01:29:16.891Z,13.10
2022-10-24T01:34:28.284Z,13.10
2022-10-24T01:39:37.908Z,13.10
2022-10-24T01:44:44.286Z,13.00
2022-10-24T01:49:53.873Z,13.10
2022-10-24T01:54:57.233Z,13.10
2022-10-24T02:00:01.075Z,13.00
2022-10-24T02:05:12.037Z,13.00
2022-10-24T02:10:20.402Z,13.10
2022-10-24T02:15:27.475Z,13.10
2022-10-24T02:20:36.210Z,13.30
2022-10-24T02:30:57.102Z,13.20
2022-10-24T02:36:04.007Z,13.10
2022-10-24T02:41:11.754Z,13.00
2022-10-24T02:46:16.680Z,13.00
2022-10-24T02:56:31.250Z,13.00
2022-10-24T03:01:34.766Z,13.00
2022-10-24T03:06:38.108Z,12.90
2022-10-24T03:11:42.922Z,12.90
2022-10-24T03:16:46.218Z,12.90
2022-10-24T03:21:49.795Z,12.80
2022-10-24T03:26:54.455Z,12.80
2022-10-24T03:31:57.745Z,12.80
2022-10-24T03:37:01.193Z,14.30
2022-10-24T03:42:06.083Z,12.70
2022-10-24T03:47:09.737Z,12.80
2022-10-24T03:52:13.468Z,12.70
2022-10-24T03:57:18.162Z,12.80
2022-10-24T04:02:21.513Z,12.70
2022-10-24T04:07:25.204Z,12.70
2022-10-24T04:12:30.033Z,12.90
2022-10-24T04:17:33.382Z,12.90
2022-10-24T04:22:36.706Z,14.50
2022-10-24T04:27:41.456Z,12.90
2022-10-24T04:32:45.202Z,12.90
2022-10-24T04:37:48.792Z,12.80
2022-10-24T04:42:53.562Z,12.80
2022-10-24T04:47:56.878Z,13.00
2022-10-24T04:53:00.160Z,12.90
2022-10-24T04:58:05.356Z,12.90
2022-10-24T05:03:08.700Z,12.80
2022-10-24T05:08:12.353Z,12.70
2022-10-24T05:13:17.221Z,12.90
2022-10-24T05:18:20.617Z,12.80
2022-10-24T05:23:23.906Z,12.80
2022-10-24T05:28:28.656Z,12.70
2022-10-24T05:33:32.027Z,12.80
2022-10-24T05:38:35.316Z,12.70
2022-10-24T05:43:39.994Z,12.80
2022-10-24T05:48:43.360Z,12.90
2022-10-24T05:53:46.664Z,12.90
2022-10-24T05:58:51.367Z,12.90
2022-10-24T08:36:14.996Z,12.90
2022-10-24T08:41:26.254Z,13.40
2022-10-24T08:46:41.053Z,13.60
2022-10-24T08:51:52.124Z,13.50
2022-10-24T08:56:58.076Z,13.50
2022-10-24T09:02:08.986Z,13.50
2022-10-24T09:07:20.291Z,13.60
2022-10-24T09:12:24.267Z,13.70
2022-10-24T09:17:32.103Z,13.80
2022-10-24T09:22:39.485Z,13.80
2022-10-24T09:27:46.419Z,13.80
2022-10-24T09:32:50.021Z,13.70
2022-10-24T09:37:56.625Z,13.70
2022-10-24T09:43:12.539Z,13.90
2022-10-24T09:48:29.252Z,13.90
2022-10-24T09:53:37.948Z,13.90
2022-10-24T09:58:41.966Z,13.80
2022-10-24T10:04:02.009Z,13.90
2022-10-24T10:09:14.855Z,13.90
2022-10-24T10:14:24.563Z,13.80
2022-10-24T10:19:28.078Z,14.00
2022-10-24T10:24:42.422Z,14.00
2022-10-24T10:29:46.776Z,14.00
2022-10-24T10:34:58.139Z,13.90
2022-10-24T10:40:22.387Z,13.90
2022-10-24T10:45:36.442Z,13.80
2022-10-24T10:50:46.131Z,13.70
2022-10-24T10:55:57.209Z,13.70
2022-10-24T11:01:09.523Z,13.70
2022-10-24T11:06:26.467Z,13.70
2022-10-24T11:11:34.113Z,13.90
2022-10-24T11:16:39.896Z,13.90
2022-10-24T11:21:45.036Z,13.80
2022-10-24T11:26:54.336Z,13.90
2022-10-24T11:37:15.262Z,14.00
2022-10-24T11:42:25.880Z,14.00
2022-10-24T11:48:06.045Z,13.80
2022-10-24T11:53:19.462Z,13.80
2022-10-24T11:58:27.244Z,13.80
2022-10-24T12:03:57.717Z,13.80
2022-10-24T12:09:25.311Z,17.60
2022-10-24T12:14:52.649Z,13.80
2022-10-24T12:19:57.254Z,13.80
2022-10-24T12:25:06.659Z,13.80
2022-10-24T12:30:21.728Z,13.80
2022-10-24T12:35:52.909Z,13.90
2022-10-24T12:40:57.864Z,14.00
2022-10-24T12:46:24.420Z,14.00
2022-10-24T12:51:30.477Z,14.00
2022-10-24T12:56:35.356Z,14.00
2022-10-24T13:01:40.286Z,14.20
2022-10-24T13:06:53.729Z,14.00
2022-10-24T13:12:08.774Z,14.00
2022-10-24T13:17:21.596Z,14.00
2022-10-24T13:22:30.553Z,14.10
2022-10-24T13:27:33.825Z,14.10
2022-10-24T13:32:38.501Z,14.10
2022-10-24T13:37:47.165Z,14.10
2022-10-24T13:42:53.030Z,14.10
2022-10-24T13:48:02.422Z,14.10
2022-10-24T13:53:15.584Z,14.20
2022-10-24T13:58:21.306Z,14.30
2022-10-24T14:03:28.344Z,14.30
2022-10-24T14:08:34.306Z,14.40
2022-10-24T14:13:44.864Z,14.30
2022-10-24T14:18:49.509Z,14.30
2022-10-24T14:23:57.541Z,14.30
2022-10-24T14:29:01.152Z,14.30
2022-10-24T14:34:09.694Z,14.30
2022-10-24T14:39:23.745Z,14.10
2022-10-24T14:44:27.639Z,14.10
2022-10-24T14:49:34.027Z,11.40
2022-10-24T14:54:37.791Z,14.20
2022-10-24T14:59:45.297Z,14.00
2022-10-24T15:04:51.955Z,13.90
2022-10-24T15:09:57.219Z,14.00
2022-10-24T15:15:22.782Z,13.90
2022-10-24T15:20:30.123Z,13.70
2022-10-24T15:25:37.909Z,13.60
2022-10-24T15:30:43.906Z,13.60
2022-10-24T15:35:48.559Z,13.50
2022-10-24T15:40:51.946Z,13.50
2022-10-24T15:45:55.216Z,13.40
2022-10-24T15:50:59.941Z,13.40
2022-10-24T15:56:03.247Z,13.30
2022-10-24T16:01:07.251Z,13.20
2022-10-24T16:06:12.021Z,13.20
2022-10-24T16:11:15.775Z,13.20
2022-10-24T16:16:19.036Z,13.10
2022-10-24T16:21:23.869Z,13.10
2022-10-24T16:26:27.166Z,13.00
2022-10-24T16:31:31.495Z,13.00
2022-10-24T16:36:36.293Z,13.00
2022-10-24T16:41:45.372Z,13.00
2022-10-24T16:46:48.630Z,13.00
2022-10-24T16:51:53.386Z,13.00
2022-10-24T16:56:56.701Z,13.00
2022-10-24T17:02:00.598Z,12.90
2022-10-24T17:07:05.264Z,12.90
2022-10-24T17:12:09.450Z,12.90
2022-10-24T17:17:12.754Z,12.90
2022-10-24T17:22:17.812Z,12.90
2022-10-24T17:27:21.518Z,12.80
2022-10-24T17:32:24.975Z,12.10
2022-10-24T17:37:41.023Z,12.80
2022-10-24T17:42:47.996Z,12.80
2022-10-24T17:47:52.000Z,12.80
2022-10-24T17:52:56.700Z,12.70
2022-10-24T17:58:00.104Z,12.70
2022-10-24T18:03:03.579Z,12.60
2022-10-24T18:08:11.141Z,12.70
2022-10-24T18:13:14.485Z,12.60
2022-10-24T18:18:17.752Z,12.70
2022-10-24T18:23:25.391Z,12.70
2022-10-24T18:28:28.689Z,12.60
2022-10-24T18:33:33.782Z,12.60
2022-10-24T18:38:39.880Z,12.50
2022-10-24T18:43:43.631Z,12.40
2022-10-24T18:48:47.376Z,12.40
2022-10-24T18:53:54.702Z,12.30
2022-10-24T18:58:58.686Z,12.20
2022-10-24T19:04:10.180Z,12.20
2022-10-24T19:09:18.234Z,12.10
2022-10-24T19:14:23.114Z,12.10
2022-10-24T19:19:29.919Z,12.10
2022-10-24T19:24:34.748Z,12.10
2022-10-24T19:29:38.145Z,15.90
2022-10-24T19:34:41.602Z,12.00
2022-10-24T19:39:46.520Z,12.00
2022-10-24T19:44:54.347Z,11.90
2022-10-24T19:49:57.874Z,11.90
2022-10-24T19:55:02.657Z,11.90
2022-10-24T20:00:06.726Z,11.90
2022-10-24T20:05:15.036Z,11.80
2022-10-24T20:10:19.774Z,11.80
2022-10-24T20:15:23.155Z,11.60
2022-10-24T20:20:26.416Z,11.60
2022-10-24T20:25:31.096Z,11.50
2022-10-24T20:30:40.170Z,11.40
2022-10-24T20:35:44.397Z,11.40
2022-10-24T20:40:49.987Z,11.40
2022-10-24T20:45:54.590Z,11.50
2022-10-24T20:51:06.470Z,11.40
2022-10-24T20:56:13.898Z,11.40
2022-10-24T21:01:20.869Z,11.40
2022-10-24T21:06:26.794Z,11.40
2022-10-24T21:11:33.065Z,11.30
2022-10-24T21:16:36.580Z,11.30
2022-10-24T21:21:40.592Z,11.20
2022-10-24T21:26:45.635Z,11.20
2022-10-24T21:31:50.458Z,11.30
2022-10-24T21:36:53.767Z,11.20
2022-10-24T21:41:58.462Z,11.20
2022-10-24T21:47:01.819Z,11.10
2022-10-24T21:52:05.401Z,11.10
2022-10-24T21:57:10.130Z,11.00
2022-10-24T22:02:13.529Z,10.90
2022-10-24T22:07:16.967Z,10.90
2022-10-24T22:12:21.629Z,10.90
2022-10-24T22:17:24.983Z,10.70
2022-10-24T22:22:28.332Z,10.60
2022-10-24T22:27:33.279Z,10.50
2022-10-24T22:32:36.974Z,10.50
2022-10-24T22:37:41.623Z,10.50
2022-10-24T22:42:46.981Z,10.50
2022-10-24T22:48:16.710Z,10.50
2022-10-24T22:53:22.248Z,10.50
2022-10-24T22:58:27.861Z,10.60
2022-10-24T23:03:40.678Z,10.60
2022-10-24T23:08:45.377Z,10.70
2022-10-24T23:13:50.576Z,10.70
2022-10-24T23:18:54.583Z,10.90
2022-10-24T23:23:58.517Z,12.70
2022-10-24T23:29:11.693Z,11.00
2022-10-24T23:34:15.730Z,11.00
2022-10-24T23:44:29.763Z,11.00
2022-10-24T23:49:38.712Z,11.30
2022-10-24T23:54:42.628Z,11.30
2022-10-24T23:59:47.592Z,11.40
